sensor_id;sensor_type;location;lat;lon;timestamp;pressure;altitude;pressure_sealevel;temperature;humidity
9129;BME280;4599;50.906;6.786;2023-04-21T00:02:36;16913.81;;;-142.83;84.99
9129;BME280;4599;50.906;6.786;2023-04-21T00:06:38;16922.00;;;-142.83;87.03
9129;BME280;4599;50.906;6.786;2023-04-21T00:10:40;16960.88;;;-142.83;85.11
9129;BME280;4599;50.906;6.786;2023-04-21T00:14:41;16942.47;;;-142.83;85.26
9129;BME280;4599;50.906;6.786;2023-04-21T00:18:44;16909.72;;;-142.83;85.53
9129;BME280;4599;50.906;6.786;2023-04-21T00:22:45;16934.28;;;-142.83;84.78
9129;BME280;4599;50.906;6.786;2023-04-21T00:26:47;16969.03;;;-142.83;85.51
9129;BME280;4599;50.906;6.786;2023-04-21T00:30:48;16942.47;;;-142.83;84.62
9129;BME280;4599;50.906;6.786;2023-04-21T00:34:51;16905.66;;;-142.83;85.11
9129;BME280;4599;50.906;6.786;2023-04-21T00:38:52;16964.97;;;-142.83;85.88
9129;BME280;4599;50.906;6.786;2023-04-21T00:42:54;16932.22;;;-142.83;84.90
9129;BME280;4599;50.906;6.786;2023-04-21T00:46:55;16934.28;;;-142.83;84.59
9129;BME280;4599;50.906;6.786;2023-04-21T00:50:58;16893.38;;;-142.83;85.38
9129;BME280;4599;50.906;6.786;2023-04-21T00:54:59;16903.59;;;-142.83;85.26
9129;BME280;4599;50.906;6.786;2023-04-21T00:59:01;16924.06;;;-142.83;85.20
9129;BME280;4599;50.906;6.786;2023-04-21T01:03:04;16954.72;;;-142.83;85.02
9129;BME280;4599;50.906;6.786;2023-04-21T01:07:08;16932.22;;;-142.83;85.34
9129;BME280;4599;50.906;6.786;2023-04-21T01:11:10;16934.28;;;-142.83;85.47
9129;BME280;4599;50.906;6.786;2023-04-21T01:15:12;16956.78;;;-142.83;85.77
9129;BME280;4599;50.906;6.786;2023-04-21T01:19:14;16917.91;;;-142.83;86.88
9129;BME280;4599;50.906;6.786;2023-04-21T01:23:17;16926.09;;;-142.83;86.50
9129;BME280;4599;50.906;6.786;2023-04-21T01:27:19;16928.13;;;-142.83;85.25
9129;BME280;4599;50.906;6.786;2023-04-21T01:31:20;16887.25;;;-142.83;86.27
9129;BME280;4599;50.906;6.786;2023-04-21T01:35:22;16922.00;;;-142.83;84.95
9129;BME280;4599;50.906;6.786;2023-04-21T01:39:25;16889.28;;;-142.83;85.90
9129;BME280;4599;50.906;6.786;2023-04-21T01:43:26;16909.72;;;-142.83;85.64
9129;BME280;4599;50.906;6.786;2023-04-21T01:47:28;16926.09;;;-142.83;85.19
9129;BME280;4599;50.906;6.786;2023-04-21T01:51:29;16909.72;;;-142.83;85.83
9129;BME280;4599;50.906;6.786;2023-04-21T01:55:32;16893.38;;;-142.83;86.20
9129;BME280;4599;50.906;6.786;2023-04-21T01:59:34;16915.88;;;-142.83;86.42
9129;BME280;4599;50.906;6.786;2023-04-21T02:03:35;16919.97;;;-142.83;85.87
9129;BME280;4599;50.906;6.786;2023-04-21T02:07:37;16905.66;;;-142.83;85.86
9129;BME280;4599;50.906;6.786;2023-04-21T02:11:40;16889.28;;;-142.83;85.64
9129;BME280;4599;50.906;6.786;2023-04-21T02:15:41;16909.72;;;-142.83;85.71
9129;BME280;4599;50.906;6.786;2023-04-21T02:19:43;16897.47;;;-142.83;86.40
9129;BME280;4599;50.906;6.786;2023-04-21T02:23:44;16913.81;;;-142.83;86.37
9129;BME280;4599;50.906;6.786;2023-04-21T02:27:47;16870.88;;;-142.83;86.76
9129;BME280;4599;50.906;6.786;2023-04-21T02:31:49;16932.22;;;-142.83;86.25
9129;BME280;4599;50.906;6.786;2023-04-21T02:36:04;16907.69;;;-142.83;85.76
9129;BME280;4599;50.906;6.786;2023-04-21T02:40:07;16905.66;;;-142.83;86.09
9129;BME280;4599;50.906;6.786;2023-04-21T02:44:10;16891.31;;;-142.83;86.78
9129;BME280;4599;50.906;6.786;2023-04-21T02:48:11;16836.09;;;-142.83;86.75
9129;BME280;4599;50.906;6.786;2023-04-21T02:52:13;16872.91;;;-142.83;86.76
9129;BME280;4599;50.906;6.786;2023-04-21T02:56:14;16864.75;;;-142.83;86.27
9129;BME280;4599;50.906;6.786;2023-04-21T03:00:17;16866.78;;;-142.83;85.67
9129;BME280;4599;50.906;6.786;2023-04-21T03:04:19;16840.19;;;-142.83;85.81
9129;BME280;4599;50.906;6.786;2023-04-21T03:08:20;16887.25;;;-142.83;86.50
9129;BME280;4599;50.906;6.786;2023-04-21T03:12:22;16858.59;;;-142.83;86.28
9129;BME280;4599;50.906;6.786;2023-04-21T03:16:25;16850.44;;;-142.83;86.29
9129;BME280;4599;50.906;6.786;2023-04-21T03:20:26;16852.47;;;-142.83;87.16
9129;BME280;4599;50.906;6.786;2023-04-21T03:24:28;16827.94;;;-142.83;88.01
9129;BME280;4599;50.906;6.786;2023-04-21T03:28:29;16864.75;;;-142.83;86.62
9129;BME280;4599;50.906;6.786;2023-04-21T03:32:32;16868.84;;;-142.83;86.79
9129;BME280;4599;50.906;6.786;2023-04-21T03:36:34;16852.47;;;-142.83;87.19
9129;BME280;4599;50.906;6.786;2023-04-21T03:40:36;16885.19;;;-142.83;87.35
9129;BME280;4599;50.906;6.786;2023-04-21T03:44:37;16850.44;;;-142.83;87.04
9129;BME280;4599;50.906;6.786;2023-04-21T03:48:40;16862.69;;;-142.83;87.27
9129;BME280;4599;50.906;6.786;2023-04-21T03:52:41;16877.00;;;-142.83;87.21
9129;BME280;4599;50.906;6.786;2023-04-21T03:56:43;16852.47;;;-142.83;86.57
9129;BME280;4599;50.906;6.786;2023-04-21T04:00:44;16856.56;;;-142.83;86.69
9129;BME280;4599;50.906;6.786;2023-04-21T04:04:47;16860.66;;;-142.83;86.75
9129;BME280;4599;50.906;6.786;2023-04-21T04:08:49;16848.38;;;-142.83;86.07
9129;BME280;4599;50.906;6.786;2023-04-21T04:12:50;16864.75;;;-142.83;86.19
9129;BME280;4599;50.906;6.786;2023-04-21T04:16:52;16842.25;;;-142.83;85.62
9129;BME280;4599;50.906;6.786;2023-04-21T04:20:54;16842.25;;;-142.83;85.98
9129;BME280;4599;50.906;6.786;2023-04-21T04:24:56;16844.28;;;-142.83;86.43
9129;BME280;4599;50.906;6.786;2023-04-21T04:28:57;16852.47;;;-142.83;86.11
9129;BME280;4599;50.906;6.786;2023-04-21T04:32:59;16836.09;;;-142.83;85.74
9129;BME280;4599;50.906;6.786;2023-04-21T04:37:02;16844.28;;;-142.83;85.66
9129;BME280;4599;50.906;6.786;2023-04-21T04:41:03;16819.75;;;-142.83;85.49
9129;BME280;4599;50.906;6.786;2023-04-21T04:45:06;16864.75;;;-142.83;85.57
9129;BME280;4599;50.906;6.786;2023-04-21T04:49:07;16872.91;;;-142.83;85.47
9129;BME280;4599;50.906;6.786;2023-04-21T04:53:12;16840.19;;;-142.83;85.71
9129;BME280;4599;50.906;6.786;2023-04-21T04:57:13;16872.91;;;-142.83;85.61
9129;BME280;4599;50.906;6.786;2023-04-21T05:01:15;16860.66;;;-142.83;84.88
9129;BME280;4599;50.906;6.786;2023-04-21T05:05:18;16846.34;;;-142.83;84.41
9129;BME280;4599;50.906;6.786;2023-04-21T05:09:20;16862.69;;;-142.83;85.06
9129;BME280;4599;50.906;6.786;2023-04-21T05:13:22;16844.28;;;-142.83;84.76
9129;BME280;4599;50.906;6.786;2023-04-21T05:17:23;16862.69;;;-142.83;84.90
9129;BME280;4599;50.906;6.786;2023-04-21T05:21:27;16840.19;;;-142.83;84.59
9129;BME280;4599;50.906;6.786;2023-04-21T05:25:30;16883.16;;;-142.83;84.72
9129;BME280;4599;50.906;6.786;2023-04-21T05:29:31;16877.00;;;-142.83;83.62
9129;BME280;4599;50.906;6.786;2023-04-21T05:33:33;16874.97;;;-142.83;83.97
9129;BME280;4599;50.906;6.786;2023-04-21T05:37:34;16885.19;;;-142.83;82.56
9129;BME280;4599;50.906;6.786;2023-04-21T05:41:37;16885.19;;;-142.83;81.54
9129;BME280;4599;50.906;6.786;2023-04-21T05:45:38;16932.22;;;-142.83;81.25
9129;BME280;4599;50.906;6.786;2023-04-21T05:49:40;16952.69;;;-142.83;80.39
9129;BME280;4599;50.906;6.786;2023-04-21T05:53:42;16989.50;;;-142.83;79.24
9129;BME280;4599;50.906;6.786;2023-04-21T05:57:45;16995.63;;;-142.83;77.52
9129;BME280;4599;50.906;6.786;2023-04-21T06:01:47;17067.22;;;-142.83;77.21
9129;BME280;4599;50.906;6.786;2023-04-21T06:05:52;17126.53;;;-142.83;73.02
9129;BME280;4599;50.906;6.786;2023-04-21T06:09:54;17196.06;;;-142.83;70.37
9129;BME280;4599;50.906;6.786;2023-04-21T06:13:57;17257.44;;;-142.83;67.72
9129;BME280;4599;50.906;6.786;2023-04-21T06:17:58;17445.59;;;-142.83;62.76
9129;BME280;4599;50.906;6.786;2023-04-21T06:22:00;17509.03;;;-142.83;58.71
9129;BME280;4599;50.906;6.786;2023-04-21T06:26:02;17785.16;;;-142.83;54.47
9129;BME280;4599;50.906;6.786;2023-04-21T06:30:06;17916.09;;;-142.83;50.20
9129;BME280;4599;50.906;6.786;2023-04-21T06:34:08;17826.09;;;-142.83;52.50
9129;BME280;4599;50.906;6.786;2023-04-21T06:38:09;17697.22;;;-142.83;52.19
9129;BME280;4599;50.906;6.786;2023-04-21T06:42:11;17578.56;;;-142.83;56.27
9129;BME280;4599;50.906;6.786;2023-04-21T06:46:14;17601.06;;;-142.83;54.57
9129;BME280;4599;50.906;6.786;2023-04-21T06:50:15;17232.88;;;-142.83;63.49
9129;BME280;4599;50.906;6.786;2023-04-21T06:54:17;17208.34;;;-142.83;66.74
9129;BME280;4599;50.906;6.786;2023-04-21T06:58:19;17161.31;;;-142.83;68.52
9129;BME280;4599;50.906;6.786;2023-04-21T07:02:23;17196.06;;;-142.83;68.74
9129;BME280;4599;50.906;6.786;2023-04-21T07:06:25;17568.34;;;-142.83;61.82
9129;BME280;4599;50.906;6.786;2023-04-21T07:10:27;17975.41;;;-142.83;50.71
9129;BME280;4599;50.906;6.786;2023-04-21T07:14:29;17838.34;;;-142.83;51.45
9129;BME280;4599;50.906;6.786;2023-04-21T07:18:31;17969.28;;;-142.83;49.67
9129;BME280;4599;50.906;6.786;2023-04-21T07:22:33;18143.19;;;-142.83;48.27
9129;BME280;4599;50.906;6.786;2023-04-21T07:26:34;17959.06;;;-142.83;48.82
9129;BME280;4599;50.906;6.786;2023-04-21T07:30:36;18059.28;;;-142.83;47.27
9129;BME280;4599;50.906;6.786;2023-04-21T07:34:39;17764.72;;;-142.83;49.75
9129;BME280;4599;50.906;6.786;2023-04-21T07:38:40;17842.44;;;-142.83;49.81
9129;BME280;4599;50.906;6.786;2023-04-21T07:42:42;18047.03;;;-142.83;50.28
9129;BME280;4599;50.906;6.786;2023-04-21T07:46:44;17664.47;;;-142.83;52.33
9129;BME280;4599;50.906;6.786;2023-04-21T07:50:48;17568.34;;;-142.83;55.05
9129;BME280;4599;50.906;6.786;2023-04-21T07:54:49;17445.59;;;-142.83;56.97
9129;BME280;4599;50.906;6.786;2023-04-21T07:58:51;17521.28;;;-142.83;56.57
9129;BME280;4599;50.906;6.786;2023-04-21T08:02:52;17504.94;;;-142.83;57.15
9129;BME280;4599;50.906;6.786;2023-04-21T08:06:55;17744.25;;;-142.83;53.00
9129;BME280;4599;50.906;6.786;2023-04-21T08:10:57;17774.94;;;-142.83;54.01
9129;BME280;4599;50.906;6.786;2023-04-21T08:14:58;17895.63;;;-142.83;51.23
9129;BME280;4599;50.906;6.786;2023-04-21T08:19:00;17985.66;;;-142.83;51.11
9129;BME280;4599;50.906;6.786;2023-04-21T08:23:02;17899.72;;;-142.83;50.72
9129;BME280;4599;50.906;6.786;2023-04-21T08:27:04;17961.09;;;-142.83;50.21
9129;BME280;4599;50.906;6.786;2023-04-21T08:31:05;17932.47;;;-142.83;51.20
9129;BME280;4599;50.906;6.786;2023-04-21T08:35:07;18024.53;;;-142.83;51.08
9129;BME280;4599;50.906;6.786;2023-04-21T08:39:10;17828.13;;;-142.83;52.15
9129;BME280;4599;50.906;6.786;2023-04-21T08:43:12;17867.00;;;-142.83;49.79
9129;BME280;4599;50.906;6.786;2023-04-21T08:47:14;17844.50;;;-142.83;50.04
9129;BME280;4599;50.906;6.786;2023-04-21T08:51:20;18251.59;;;-142.83;46.87
9129;BME280;4599;50.906;6.786;2023-04-21T08:55:28;17928.38;;;-142.83;47.84
9129;BME280;4599;50.906;6.786;2023-04-21T08:59:29;17930.41;;;-142.83;49.25
9129;BME280;4599;50.906;6.786;2023-04-21T09:03:31;17742.22;;;-142.83;51.15
9129;BME280;4599;50.906;6.786;2023-04-21T09:07:34;18306.84;;;-142.83;47.40
9129;BME280;4599;50.906;6.786;2023-04-21T09:11:38;18331.41;;;-142.83;45.49
9129;BME280;4599;50.906;6.786;2023-04-21T09:15:39;17877.22;;;-142.83;48.16
9129;BME280;4599;50.906;6.786;2023-04-21T09:19:41;17969.28;;;-142.83;49.87
9129;BME280;4599;50.906;6.786;2023-04-21T09:23:45;18079.75;;;-142.83;49.37
9129;BME280;4599;50.906;6.786;2023-04-21T09:27:48;17666.53;;;-142.83;51.88
9129;BME280;4599;50.906;6.786;2023-04-21T09:31:50;18010.19;;;-142.83;50.54
9129;BME280;4599;50.906;6.786;2023-04-21T09:35:51;18024.53;;;-142.83;50.39
9129;BME280;4599;50.906;6.786;2023-04-21T09:39:53;18398.91;;;-142.83;45.59
9129;BME280;4599;50.906;6.786;2023-04-21T09:44:06;17901.78;;;-142.83;48.74
9129;BME280;4599;50.906;6.786;2023-04-21T09:48:08;18104.31;;;-142.83;45.93
9129;BME280;4599;50.906;6.786;2023-04-21T09:52:10;17989.75;;;-142.83;46.59
9129;BME280;4599;50.906;6.786;2023-04-21T09:56:23;18094.06;;;-142.83;47.92
9129;BME280;4599;50.906;6.786;2023-04-21T10:00:27;18120.66;;;-142.83;48.13
9129;BME280;4599;50.906;6.786;2023-04-21T10:04:30;18243.41;;;-142.83;47.09
9129;BME280;4599;50.906;6.786;2023-04-21T10:08:33;18245.47;;;-142.83;46.54
9129;BME280;4599;50.906;6.786;2023-04-21T10:12:35;18272.06;;;-142.83;45.31
9129;BME280;4599;50.906;6.786;2023-04-21T10:16:38;18071.56;;;-142.83;44.38
9129;BME280;4599;50.906;6.786;2023-04-21T10:21:01;18300.72;;;-142.83;44.74
9129;BME280;4599;50.906;6.786;2023-04-21T10:25:04;18284.34;;;-142.83;45.19
9129;BME280;4599;50.906;6.786;2023-04-21T10:29:08;18200.47;;;-142.83;45.76
9129;BME280;4599;50.906;6.786;2023-04-21T10:33:16;18517.59;;;-142.83;42.71
9129;BME280;4599;50.906;6.786;2023-04-21T10:37:18;18370.28;;;-142.83;42.82
9129;BME280;4599;50.906;6.786;2023-04-21T10:41:26;18523.72;;;-142.83;42.10
9129;BME280;4599;50.906;6.786;2023-04-21T10:45:29;18257.75;;;-142.83;43.67
9129;BME280;4599;50.906;6.786;2023-04-21T10:49:37;18548.28;;;-142.83;40.91
9129;BME280;4599;50.906;6.786;2023-04-21T10:53:42;18564.63;;;-142.83;39.44
9129;BME280;4599;50.906;6.786;2023-04-21T10:57:44;18484.84;;;-142.83;42.27
9129;BME280;4599;50.906;6.786;2023-04-21T11:01:45;18666.94;;;-142.83;39.51
9129;BME280;4599;50.906;6.786;2023-04-21T11:05:48;18587.16;;;-142.83;40.44
9129;BME280;4599;50.906;6.786;2023-04-21T11:09:56;18746.75;;;-142.83;37.96
9129;BME280;4599;50.906;6.786;2023-04-21T11:13:58;18615.78;;;-142.83;38.50
9129;BME280;4599;50.906;6.786;2023-04-21T11:18:00;18832.69;;;-142.83;37.05
9129;BME280;4599;50.906;6.786;2023-04-21T11:22:04;18785.63;;;-142.83;36.50
9129;BME280;4599;50.906;6.786;2023-04-21T11:26:05;18599.41;;;-142.83;36.88
9129;BME280;4599;50.906;6.786;2023-04-21T11:30:08;18593.28;;;-142.83;36.59
9129;BME280;4599;50.906;6.786;2023-04-21T11:34:10;18464.38;;;-142.83;38.08
9129;BME280;4599;50.906;6.786;2023-04-21T11:38:13;18552.38;;;-142.83;38.12
9129;BME280;4599;50.906;6.786;2023-04-21T11:42:20;18666.94;;;-142.83;35.85
9129;BME280;4599;50.906;6.786;2023-04-21T11:46:23;18785.63;;;-142.83;35.41
9129;BME280;4599;50.906;6.786;2023-04-21T11:50:29;18611.69;;;-142.83;36.68
9129;BME280;4599;50.906;6.786;2023-04-21T11:54:32;18730.38;;;-142.83;35.78
9129;BME280;4599;50.906;6.786;2023-04-21T11:58:33;18683.31;;;-142.83;35.46
9129;BME280;4599;50.906;6.786;2023-04-21T12:02:35;18544.19;;;-142.83;37.20
9129;BME280;4599;50.906;6.786;2023-04-21T12:06:37;18703.78;;;-142.83;36.59
9129;BME280;4599;50.906;6.786;2023-04-21T12:10:43;18623.97;;;-142.83;35.90
9129;BME280;4599;50.906;6.786;2023-04-21T12:14:45;18550.31;;;-142.83;36.51
9129;BME280;4599;50.906;6.786;2023-04-21T12:18:47;18615.78;;;-142.83;35.21
9129;BME280;4599;50.906;6.786;2023-04-21T12:22:49;18615.78;;;-142.83;34.60
9129;BME280;4599;50.906;6.786;2023-04-21T12:26:52;18562.59;;;-142.83;35.85
9129;BME280;4599;50.906;6.786;2023-04-21T12:30:54;18652.63;;;-142.83;35.68
9129;BME280;4599;50.906;6.786;2023-04-21T12:34:55;18448.00;;;-142.83;35.55
9129;BME280;4599;50.906;6.786;2023-04-21T12:38:57;18552.38;;;-142.83;36.58
9129;BME280;4599;50.906;6.786;2023-04-21T12:42:59;18405.06;;;-142.83;36.83
9129;BME280;4599;50.906;6.786;2023-04-21T12:47:02;18390.72;;;-142.83;37.83
9129;BME280;4599;50.906;6.786;2023-04-21T12:51:03;18437.78;;;-142.83;38.54
9129;BME280;4599;50.906;6.786;2023-04-21T12:55:05;18486.88;;;-142.83;38.62
9129;BME280;4599;50.906;6.786;2023-04-21T12:59:09;18595.34;;;-142.83;37.69
9129;BME280;4599;50.906;6.786;2023-04-21T13:03:10;18292.53;;;-142.83;37.20
9129;BME280;4599;50.906;6.786;2023-04-21T13:07:12;18482.81;;;-142.83;37.60
9129;BME280;4599;50.906;6.786;2023-04-21T13:11:14;18570.78;;;-142.83;37.78
9129;BME280;4599;50.906;6.786;2023-04-21T13:15:17;18488.94;;;-142.83;36.90
9129;BME280;4599;50.906;6.786;2023-04-21T13:19:18;18353.91;;;-142.83;37.92
9129;BME280;4599;50.906;6.786;2023-04-21T13:23:20;18108.41;;;-142.83;40.11
9129;BME280;4599;50.906;6.786;2023-04-21T13:27:21;18347.75;;;-142.83;39.93
9129;BME280;4599;50.906;6.786;2023-04-21T13:31:24;18141.13;;;-142.83;38.95
9129;BME280;4599;50.906;6.786;2023-04-21T13:35:26;18182.03;;;-142.83;41.14
9129;BME280;4599;50.906;6.786;2023-04-21T13:39:27;18366.19;;;-142.83;40.90
9129;BME280;4599;50.906;6.786;2023-04-21T13:43:29;18044.97;;;-142.83;42.83
9129;BME280;4599;50.906;6.786;2023-04-21T13:47:32;18061.34;;;-142.83;42.81
9129;BME280;4599;50.906;6.786;2023-04-21T13:51:34;17999.97;;;-142.83;42.81
9129;BME280;4599;50.906;6.786;2023-04-21T13:55:35;17979.50;;;-142.83;41.51
9129;BME280;4599;50.906;6.786;2023-04-21T13:59:37;18110.44;;;-142.83;42.39
9129;BME280;4599;50.906;6.786;2023-04-21T14:03:40;18218.88;;;-142.83;40.51
9129;BME280;4599;50.906;6.786;2023-04-21T14:07:42;18110.44;;;-142.83;41.06
9129;BME280;4599;50.906;6.786;2023-04-21T14:11:44;18028.59;;;-142.83;41.82
9129;BME280;4599;50.906;6.786;2023-04-21T14:15:45;17993.84;;;-142.83;42.07
9129;BME280;4599;50.906;6.786;2023-04-21T14:19:48;18012.25;;;-142.83;42.86
9129;BME280;4599;50.906;6.786;2023-04-21T14:23:50;17981.56;;;-142.83;43.05
9129;BME280;4599;50.906;6.786;2023-04-21T14:27:52;18081.81;;;-142.83;42.60
9129;BME280;4599;50.906;6.786;2023-04-21T14:31:54;18030.66;;;-142.83;42.62
9129;BME280;4599;50.906;6.786;2023-04-21T14:35:56;18057.25;;;-142.83;42.10
9129;BME280;4599;50.906;6.786;2023-04-21T14:39:58;18018.38;;;-142.83;42.45
9129;BME280;4599;50.906;6.786;2023-04-21T14:43:59;18053.16;;;-142.83;42.96
9129;BME280;4599;50.906;6.786;2023-04-21T14:48:01;18120.66;;;-142.83;42.39
9129;BME280;4599;50.906;6.786;2023-04-21T14:52:04;18063.38;;;-142.83;42.75
9129;BME280;4599;50.906;6.786;2023-04-21T14:56:06;18057.25;;;-142.83;43.09
9129;BME280;4599;50.906;6.786;2023-04-21T15:00:08;17981.56;;;-142.83;43.19
9129;BME280;4599;50.906;6.786;2023-04-21T15:04:10;17965.19;;;-142.83;42.71
9129;BME280;4599;50.906;6.786;2023-04-21T15:08:13;17934.50;;;-142.83;42.94
9129;BME280;4599;50.906;6.786;2023-04-21T15:12:15;17957.00;;;-142.83;43.22
9129;BME280;4599;50.906;6.786;2023-04-21T15:16:16;17989.75;;;-142.83;43.19
9129;BME280;4599;50.906;6.786;2023-04-21T15:20:18;18016.34;;;-142.83;42.90
9129;BME280;4599;50.906;6.786;2023-04-21T15:24:31;18063.38;;;-142.83;42.73
9129;BME280;4599;50.906;6.786;2023-04-21T15:28:32;18026.56;;;-142.83;41.17
9129;BME280;4599;50.906;6.786;2023-04-21T15:32:34;18094.06;;;-142.83;40.99
9129;BME280;4599;50.906;6.786;2023-04-21T15:36:35;18063.38;;;-142.83;42.10
9129;BME280;4599;50.906;6.786;2023-04-21T15:40:39;17969.28;;;-142.83;42.50
9129;BME280;4599;50.906;6.786;2023-04-21T15:45:00;17940.66;;;-142.83;42.35
9129;BME280;4599;50.906;6.786;2023-04-21T15:49:02;17887.47;;;-142.83;42.91
9129;BME280;4599;50.906;6.786;2023-04-21T15:53:04;17920.19;;;-142.83;42.85
9129;BME280;4599;50.906;6.786;2023-04-21T15:57:06;17936.56;;;-142.83;43.15
9129;BME280;4599;50.906;6.786;2023-04-21T16:01:08;17936.56;;;-142.83;42.79
9129;BME280;4599;50.906;6.786;2023-04-21T16:05:10;17867.00;;;-142.83;43.08
9129;BME280;4599;50.906;6.786;2023-04-21T16:09:11;17912.00;;;-142.83;42.86
9129;BME280;4599;50.906;6.786;2023-04-21T16:13:14;17858.81;;;-142.83;43.66
9129;BME280;4599;50.906;6.786;2023-04-21T16:17:16;17785.16;;;-142.83;43.31
9129;BME280;4599;50.906;6.786;2023-04-21T16:21:17;17789.25;;;-142.83;45.75
9129;BME280;4599;50.906;6.786;2023-04-21T16:25:19;17844.50;;;-142.83;44.34
9129;BME280;4599;50.906;6.786;2023-04-21T16:29:22;17822.00;;;-142.83;44.45
9129;BME280;4599;50.906;6.786;2023-04-21T16:33:23;17797.44;;;-142.83;46.26
9129;BME280;4599;50.906;6.786;2023-04-21T16:37:25;17752.44;;;-142.83;45.65
9129;BME280;4599;50.906;6.786;2023-04-21T16:41:26;17764.72;;;-142.83;46.08
9129;BME280;4599;50.906;6.786;2023-04-21T16:45:29;17754.50;;;-142.83;46.78
9129;BME280;4599;50.906;6.786;2023-04-21T16:49:30;17736.06;;;-142.83;48.50
9129;BME280;4599;50.906;6.786;2023-04-21T16:53:32;17695.16;;;-142.83;48.38
9129;BME280;4599;50.906;6.786;2023-04-21T16:57:34;17707.44;;;-142.83;49.16
9129;BME280;4599;50.906;6.786;2023-04-21T17:01:36;17719.72;;;-142.83;48.98
9129;BME280;4599;50.906;6.786;2023-04-21T17:05:38;17729.94;;;-142.83;49.77
9129;BME280;4599;50.906;6.786;2023-04-21T17:09:40;17686.97;;;-142.83;47.73
9129;BME280;4599;50.906;6.786;2023-04-21T17:13:42;17699.25;;;-142.83;49.17
9129;BME280;4599;50.906;6.786;2023-04-21T17:17:44;17707.44;;;-142.83;48.09
9129;BME280;4599;50.906;6.786;2023-04-21T17:21:46;17662.44;;;-142.83;48.74
9129;BME280;4599;50.906;6.786;2023-04-21T17:25:48;17654.25;;;-142.83;49.92
9129;BME280;4599;50.906;6.786;2023-04-21T17:29:49;17635.84;;;-142.83;49.28
9129;BME280;4599;50.906;6.786;2023-04-21T17:33:52;17697.22;;;-142.83;48.71
9129;BME280;4599;50.906;6.786;2023-04-21T17:37:54;17682.88;;;-142.83;48.30
9129;BME280;4599;50.906;6.786;2023-04-21T17:41:55;17660.38;;;-142.83;50.82
9129;BME280;4599;50.906;6.786;2023-04-21T17:45:57;17625.63;;;-142.83;52.40
9129;BME280;4599;50.906;6.786;2023-04-21T17:50:00;17551.97;;;-142.83;55.01
9129;BME280;4599;50.906;6.786;2023-04-21T17:54:01;17613.34;;;-142.83;55.51
9129;BME280;4599;50.906;6.786;2023-04-21T17:58:03;17609.25;;;-142.83;54.75
9129;BME280;4599;50.906;6.786;2023-04-21T18:02:05;17584.69;;;-142.83;54.47
9129;BME280;4599;50.906;6.786;2023-04-21T18:06:08;17596.97;;;-142.83;53.10
9129;BME280;4599;50.906;6.786;2023-04-21T18:10:11;17576.53;;;-142.83;55.61
9129;BME280;4599;50.906;6.786;2023-04-21T18:14:12;17594.94;;;-142.83;54.84
9129;BME280;4599;50.906;6.786;2023-04-21T18:18:14;17576.53;;;-142.83;54.72
9129;BME280;4599;50.906;6.786;2023-04-21T18:22:16;17568.34;;;-142.83;57.31
9129;BME280;4599;50.906;6.786;2023-04-21T18:26:18;17592.88;;;-142.83;nan
9129;BME280;4599;50.906;6.786;2023-04-21T18:30:19;17539.69;;;-142.83;57.18
9129;BME280;4599;50.906;6.786;2023-04-21T18:34:21;17621.53;;;-142.83;52.80
9129;BME280;4599;50.906;6.786;2023-04-21T18:38:24;17515.16;;;-142.83;54.81
9129;BME280;4599;50.906;6.786;2023-04-21T18:42:26;17511.06;;;-142.83;56.39
9129;BME280;4599;50.906;6.786;2023-04-21T18:46:28;17461.97;;;-142.83;59.16
9129;BME280;4599;50.906;6.786;2023-04-21T18:50:29;17363.78;;;-142.83;69.60
9129;BME280;4599;50.906;6.786;2023-04-21T18:54:32;17326.97;;;-142.83;72.08
9129;BME280;4599;50.906;6.786;2023-04-21T18:58:33;17306.53;;;-142.83;75.22
9129;BME280;4599;50.906;6.786;2023-04-21T19:02:35;17296.28;;;-142.83;73.42
9129;BME280;4599;50.906;6.786;2023-04-21T19:06:37;17257.44;;;-142.83;76.88
9129;BME280;4599;50.906;6.786;2023-04-21T19:10:40;17249.25;;;-142.83;78.75
9129;BME280;4599;50.906;6.786;2023-04-21T19:14:42;17218.56;;;-142.83;78.02
9129;BME280;4599;50.906;6.786;2023-04-21T19:18:48;17212.44;;;-142.83;80.30
9129;BME280;4599;50.906;6.786;2023-04-21T19:22:49;17198.13;;;-142.83;82.38
9129;BME280;4599;50.906;6.786;2023-04-21T19:26:52;17224.72;;;-142.83;79.80
9129;BME280;4599;50.906;6.786;2023-04-21T19:30:54;17210.38;;;-142.83;79.86
9129;BME280;4599;50.906;6.786;2023-04-21T19:34:55;17167.44;;;-142.83;84.55
9129;BME280;4599;50.906;6.786;2023-04-21T19:38:56;17134.72;;;-142.83;85.54
9129;BME280;4599;50.906;6.786;2023-04-21T19:43:00;17138.81;;;-142.83;86.25
9129;BME280;4599;50.906;6.786;2023-04-21T19:47:02;17159.25;;;-142.83;86.62
9129;BME280;4599;50.906;6.786;2023-04-21T19:51:03;17146.97;;;-142.83;85.49
9129;BME280;4599;50.906;6.786;2023-04-21T19:55:05;17122.44;;;-142.83;86.41
9129;BME280;4599;50.906;6.786;2023-04-21T19:59:08;17134.72;;;-142.83;84.29
9129;BME280;4599;50.906;6.786;2023-04-21T20:03:09;17159.25;;;-142.83;82.08
9129;BME280;4599;50.906;6.786;2023-04-21T20:07:11;17187.88;;;-142.83;82.36
9129;BME280;4599;50.906;6.786;2023-04-21T20:11:12;17149.03;;;-142.83;84.38
9129;BME280;4599;50.906;6.786;2023-04-21T20:15:16;17106.06;;;-142.83;85.55
9129;BME280;4599;50.906;6.786;2023-04-21T20:19:18;17112.22;;;-142.83;84.68
9129;BME280;4599;50.906;6.786;2023-04-21T20:23:19;17063.13;;;-142.83;85.48
9129;BME280;4599;50.906;6.786;2023-04-21T20:27:21;17085.63;;;-142.83;86.34
9129;BME280;4599;50.906;6.786;2023-04-21T20:31:23;17085.63;;;-142.83;86.08
9129;BME280;4599;50.906;6.786;2023-04-21T20:35:25;17067.22;;;-142.83;86.67
9129;BME280;4599;50.906;6.786;2023-04-21T20:39:26;17071.31;;;-142.83;85.82
9129;BME280;4599;50.906;6.786;2023-04-21T20:43:28;17067.22;;;-142.83;85.00
9129;BME280;4599;50.906;6.786;2023-04-21T20:47:31;17071.31;;;-142.83;85.53
9129;BME280;4599;50.906;6.786;2023-04-21T20:51:35;17095.84;;;-142.83;86.06
9129;BME280;4599;50.906;6.786;2023-04-21T20:55:41;17077.44;;;-142.83;84.65
9129;BME280;4599;50.906;6.786;2023-04-21T20:59:42;17075.41;;;-142.83;85.48
9129;BME280;4599;50.906;6.786;2023-04-21T21:03:45;17046.75;;;-142.83;85.78
9129;BME280;4599;50.906;6.786;2023-04-21T21:07:47;17026.31;;;-142.83;85.94
9129;BME280;4599;50.906;6.786;2023-04-21T21:11:49;17016.09;;;-142.83;85.89
9129;BME280;4599;50.906;6.786;2023-04-21T21:15:50;17032.44;;;-142.83;85.26
9129;BME280;4599;50.906;6.786;2023-04-21T21:19:53;17016.09;;;-142.83;85.83
9129;BME280;4599;50.906;6.786;2023-04-21T21:23:55;17018.13;;;-142.83;86.31